Time;durP1;ratioP1;P1;durP2;ratioP2;P2;SDS_P1;SDS_P2;PMS_P1;PMS_P2;Temp;Humidity;BMP_temperature;BMP_pressure;BME280_temperature;BME280_humidity;BME280_pressure;Samples;Min_cycle;Max_cycle;Signal;HPM_P1;HPM_P2
2023/12/30 00:01:22;;;;;;;8.00;2.47;;;;;;;;;;6126502;23;20020;-86
2023/12/30 00:04:09;;;;;;;5.15;1.90;;;;;;;;;;6126567;23;20527;-88
2023/12/30 00:06:53;;;;;;;6.72;2.05;;;;;;;;;;6127200;23;20024;-88
2023/12/30 00:09:37;;;;;;;11.23;2.30;;;;;;;;;;6126589;23;20027;-87
2023/12/30 00:12:22;;;;;;;9.68;2.30;;;;;;;;;;6127332;23;20108;-88
2023/12/30 00:15:07;;;;;;;11.00;2.50;;;;;;;;;;6126920;23;20040;-87
2023/12/30 00:17:51;;;;;;;9.35;2.80;;;;;;;;;;6126283;23;20021;-87
2023/12/30 00:20:38;;;;;;;7.75;2.28;;;;;;;;;;6126997;23;20116;-85
2023/12/30 00:23:22;;;;;;;10.45;2.55;;;;;;;;;;6126732;23;20343;-86
2023/12/30 00:26:17;;;;;;;5.18;2.42;;;;;;;;;;6127468;23;20020;-87
2023/12/30 00:29:01;;;;;;;6.22;1.88;;;;;;;;;;6147445;23;20029;-88
2023/12/30 00:31:46;;;;;;;7.55;1.95;;;;;;;;;;6126720;23;20411;-88
2023/12/30 00:34:33;;;;;;;7.13;2.40;;;;;;;;;;6126618;23;20332;-87
2023/12/30 00:37:19;;;;;;;10.02;2.10;;;;;;;;;;6148882;23;20032;-88
2023/12/30 00:40:04;;;;;;;7.85;2.33;;;;;;;;;;6127158;23;20059;-88
2023/12/30 00:42:54;;;;;;;6.35;2.10;;;;;;;;;;6148239;23;20458;-87
2023/12/30 00:45:38;;;;;;;11.63;2.47;;;;;;;;;;6126465;23;20067;-85
2023/12/30 00:48:22;;;;;;;6.95;2.22;;;;;;;;;;6126752;22;20455;-86
2023/12/30 00:51:06;;;;;;;9.60;2.75;;;;;;;;;;6126796;23;20516;-87
2023/12/30 00:53:50;;;;;;;12.52;2.55;;;;;;;;;;6126554;23;20612;-87
2023/12/30 00:56:34;;;;;;;11.15;2.25;;;;;;;;;;6148083;23;20075;-87
2023/12/30 00:59:18;;;;;;;5.85;1.83;;;;;;;;;;6148026;23;20067;-87
2023/12/30 01:02:02;;;;;;;9.48;3.60;;;;;;;;;;6148065;23;20098;-87
2023/12/30 01:04:46;;;;;;;5.20;1.80;;;;;;;;;;6126590;23;20021;-86
2023/12/30 01:07:30;;;;;;;8.02;2.10;;;;;;;;;;6126660;23;20023;-87
2023/12/30 01:10:16;;;;;;;7.03;2.00;;;;;;;;;;6126994;23;20071;-87
2023/12/30 01:13:00;;;;;;;8.48;2.40;;;;;;;;;;6126754;23;20143;-89
2023/12/30 01:15:44;;;;;;;7.82;2.70;;;;;;;;;;6126723;23;20020;-89
2023/12/30 01:18:28;;;;;;;11.02;2.30;;;;;;;;;;6149269;23;20024;-88
2023/12/30 01:21:12;;;;;;;8.23;2.55;;;;;;;;;;6126773;23;20020;-86
2023/12/30 01:23:56;;;;;;;9.48;2.08;;;;;;;;;;6126899;23;20130;-86
2023/12/30 01:26:40;;;;;;;7.68;2.35;;;;;;;;;;6125968;23;20032;-88
2023/12/30 01:29:25;;;;;;;10.38;2.45;;;;;;;;;;6126604;23;20025;-89
2023/12/30 01:32:09;;;;;;;13.23;3.00;;;;;;;;;;6148343;23;20091;-87
2023/12/30 01:34:53;;;;;;;6.93;2.30;;;;;;;;;;6126348;23;20398;-86
2023/12/30 01:37:37;;;;;;;10.07;2.28;;;;;;;;;;6148503;23;20023;-87
2023/12/30 01:40:21;;;;;;;13.13;2.30;;;;;;;;;;6127626;22;20397;-87
2023/12/30 01:43:06;;;;;;;7.20;2.17;;;;;;;;;;6127382;23;20017;-87
2023/12/30 01:45:51;;;;;;;11.13;2.40;;;;;;;;;;6127373;23;20099;-87
2023/12/30 01:48:36;;;;;;;13.25;2.72;;;;;;;;;;6127858;23;20020;-87
2023/12/30 01:51:20;;;;;;;7.15;2.35;;;;;;;;;;6128129;23;20140;-88
2023/12/30 01:54:04;;;;;;;6.95;2.30;;;;;;;;;;6128044;23;20051;-87
2023/12/30 01:56:49;;;;;;;10.10;2.40;;;;;;;;;;6127566;23;20048;-87
2023/12/30 01:59:35;;;;;;;8.82;2.58;;;;;;;;;;6128322;22;20036;-87
2023/12/30 02:02:21;;;;;;;8.02;2.10;;;;;;;;;;6128435;23;20109;-87
2023/12/30 02:05:05;;;;;;;11.55;2.65;;;;;;;;;;6150022;23;20021;-88
2023/12/30 02:07:49;;;;;;;9.77;3.25;;;;;;;;;;6128237;22;20025;-88
2023/12/30 02:10:33;;;;;;;15.43;2.47;;;;;;;;;;6128622;23;20501;-87
2023/12/30 02:13:17;;;;;;;13.05;2.53;;;;;;;;;;6149140;23;20056;-87
2023/12/30 02:16:01;;;;;;;12.32;2.65;;;;;;;;;;6128008;23;20024;-89
2023/12/30 02:18:45;;;;;;;5.28;2.13;;;;;;;;;;6128227;23;20485;-88
2023/12/30 02:21:28;;;;;;;11.57;3.33;;;;;;;;;;6127760;23;20474;-88
2023/12/30 02:24:13;;;;;;;16.05;2.80;;;;;;;;;;6128025;23;20095;-87
2023/12/30 02:26:56;;;;;;;10.70;2.47;;;;;;;;;;6127004;23;20023;-88
2023/12/30 02:29:40;;;;;;;7.82;2.88;;;;;;;;;;6127648;23;20467;-88
2023/12/30 02:32:24;;;;;;;15.10;2.25;;;;;;;;;;6127910;23;20033;-87
2023/12/30 02:35:08;;;;;;;18.95;2.65;;;;;;;;;;6127627;23;20025;-87
2023/12/30 02:37:52;;;;;;;10.02;2.53;;;;;;;;;;6127785;23;20024;-88
2023/12/30 02:40:36;;;;;;;14.82;2.97;;;;;;;;;;6127734;23;20037;-89
2023/12/30 02:43:20;;;;;;;11.40;2.13;;;;;;;;;;6127554;23;20328;-87
2023/12/30 02:46:04;;;;;;;8.85;2.22;;;;;;;;;;6127567;23;20016;-86
2023/12/30 02:48:48;;;;;;;8.15;2.17;;;;;;;;;;6127690;23;20024;-87
2023/12/30 02:51:32;;;;;;;8.82;2.05;;;;;;;;;;6127271;23;20052;-86
2023/12/30 02:54:16;;;;;;;11.45;2.50;;;;;;;;;;6150182;23;20059;-89
2023/12/30 02:57:02;;;;;;;11.00;2.92;;;;;;;;;;6127207;23;20340;-87
2023/12/30 02:59:46;;;;;;;11.57;2.65;;;;;;;;;;6128021;23;20017;-87
2023/12/30 03:02:31;;;;;;;6.78;2.28;;;;;;;;;;6149551;23;20016;-88
2023/12/30 03:05:15;;;;;;;15.68;2.85;;;;;;;;;;6127694;23;20507;-88
2023/12/30 03:07:59;;;;;;;5.65;2.60;;;;;;;;;;6128463;23;20040;-87
2023/12/30 03:10:43;;;;;;;14.80;2.65;;;;;;;;;;6128299;22;20020;-88
2023/12/30 03:13:27;;;;;;;9.45;2.70;;;;;;;;;;6127593;23;20036;-86
2023/12/30 03:16:13;;;;;;;11.10;2.70;;;;;;;;;;6127860;23;20024;-87
2023/12/30 03:18:57;;;;;;;7.05;2.40;;;;;;;;;;6127644;23;20510;-87
2023/12/30 03:21:41;;;;;;;12.60;2.63;;;;;;;;;;6127964;23;20012;-86
2023/12/30 03:24:26;;;;;;;6.47;2.65;;;;;;;;;;6127621;23;20021;-87
2023/12/30 03:27:10;;;;;;;8.98;2.72;;;;;;;;;;6127415;23;20068;-88
2023/12/30 03:30:00;;;;;;;6.60;2.33;;;;;;;;;;6149896;23;20020;-87
2023/12/30 03:32:44;;;;;;;11.85;2.50;;;;;;;;;;6119793;23;20064;-87
2023/12/30 03:35:28;;;;;;;7.22;2.00;;;;;;;;;;6118829;23;20052;-88
2023/12/30 03:38:12;;;;;;;9.15;2.50;;;;;;;;;;6119449;23;20040;-87
2023/12/30 03:40:57;;;;;;;9.90;2.55;;;;;;;;;;6119084;23;20107;-89
2023/12/30 03:43:41;;;;;;;12.15;2.63;;;;;;;;;;6118900;23;20070;-87
2023/12/30 03:46:25;;;;;;;5.80;2.53;;;;;;;;;;6119817;23;20025;-89
2023/12/30 03:49:09;;;;;;;11.05;2.20;;;;;;;;;;6119617;23;20064;-87
2023/12/30 03:51:53;;;;;;;9.80;2.42;;;;;;;;;;6117194;23;20016;-87
2023/12/30 03:54:37;;;;;;;8.00;2.22;;;;;;;;;;6118429;23;20021;-88
2023/12/30 03:57:22;;;;;;;11.55;2.60;;;;;;;;;;6118575;23;20471;-88
2023/12/30 04:00:06;;;;;;;19.27;3.75;;;;;;;;;;6119051;23;20052;-88
2023/12/30 04:02:50;;;;;;;8.68;2.30;;;;;;;;;;6118152;23;20073;-89
2023/12/30 04:05:34;;;;;;;11.00;2.88;;;;;;;;;;6120411;23;20396;-88
2023/12/30 04:08:18;;;;;;;5.47;2.20;;;;;;;;;;6119332;23;20084;-88
2023/12/30 04:11:02;;;;;;;8.57;2.90;;;;;;;;;;6118564;23;20075;-88
2023/12/30 04:13:46;;;;;;;5.28;2.20;;;;;;;;;;6118893;23;20344;-87
2023/12/30 04:16:30;;;;;;;8.77;2.08;;;;;;;;;;6119291;23;20340;-88
2023/12/30 04:19:15;;;;;;;7.15;2.35;;;;;;;;;;6118847;23;20021;-87
2023/12/30 04:21:59;;;;;;;8.20;2.28;;;;;;;;;;6118590;23;20025;-88
2023/12/30 04:24:43;;;;;;;10.52;2.28;;;;;;;;;;6118604;23;20021;-88
2023/12/30 04:27:27;;;;;;;5.85;2.35;;;;;;;;;;6118346;23;20082;-87
2023/12/30 04:30:12;;;;;;;16.88;3.42;;;;;;;;;;6119183;23;20101;-89
2023/12/30 04:32:55;;;;;;;7.80;2.92;;;;;;;;;;6118648;23;20032;-88
2023/12/30 04:35:41;;;;;;;14.60;3.47;;;;;;;;;;6119728;23;20029;-89
2023/12/30 04:38:25;;;;;;;7.43;2.30;;;;;;;;;;6118456;23;20524;-88
2023/12/30 04:41:09;;;;;;;9.80;2.25;;;;;;;;;;6118591;23;20387;-86
2023/12/30 04:43:54;;;;;;;9.75;2.88;;;;;;;;;;6120190;23;20017;-87
2023/12/30 04:46:39;;;;;;;7.97;2.65;;;;;;;;;;6118834;23;20053;-87
2023/12/30 04:49:22;;;;;;;10.02;2.40;;;;;;;;;;6118457;23;20344;-87
2023/12/30 04:52:06;;;;;;;8.93;2.70;;;;;;;;;;6118311;23;20052;-86
2023/12/30 04:54:50;;;;;;;5.15;2.10;;;;;;;;;;6118478;23;20020;-86
2023/12/30 04:57:34;;;;;;;9.75;3.05;;;;;;;;;;6118209;23;20401;-87
2023/12/30 05:00:18;;;;;;;7.82;2.47;;;;;;;;;;6119687;23;20017;-89
2023/12/30 05:03:02;;;;;;;8.57;2.22;;;;;;;;;;6117940;23;20025;-88
2023/12/30 05:05:46;;;;;;;11.25;2.13;;;;;;;;;;6118480;23;20013;-87
2023/12/30 05:08:31;;;;;;;8.25;2.38;;;;;;;;;;6119547;23;20021;-87
2023/12/30 05:11:15;;;;;;;9.65;2.20;;;;;;;;;;6118740;23;20037;-88
2023/12/30 05:13:59;;;;;;;9.02;2.50;;;;;;;;;;6118524;23;20120;-88
2023/12/30 05:16:44;;;;;;;5.93;2.05;;;;;;;;;;6119977;23;20029;-90
2023/12/30 05:19:28;;;;;;;9.65;2.45;;;;;;;;;;6119822;23;20025;-89
2023/12/30 05:22:12;;;;;;;15.52;2.75;;;;;;;;;;6121165;23;20089;-88
2023/12/30 05:24:56;;;;;;;10.57;2.45;;;;;;;;;;6120520;23;20503;-89
2023/12/30 05:27:40;;;;;;;14.65;3.58;;;;;;;;;;6119691;23;20029;-88
2023/12/30 05:30:24;;;;;;;5.93;2.10;;;;;;;;;;6119573;23;20067;-89
2023/12/30 05:33:07;;;;;;;6.00;2.00;;;;;;;;;;6119490;23;20049;-88
2023/12/30 05:35:51;;;;;;;9.18;3.10;;;;;;;;;;6119872;23;20040;-87
2023/12/30 05:38:35;;;;;;;6.85;2.28;;;;;;;;;;6119924;23;20021;-88
2023/12/30 05:41:19;;;;;;;10.65;2.70;;;;;;;;;;6119591;23;20020;-87
2023/12/30 05:44:03;;;;;;;9.02;1.92;;;;;;;;;;6121010;23;20336;-87
2023/12/30 05:46:47;;;;;;;7.30;2.17;;;;;;;;;;6121088;23;20403;-91
2023/12/30 05:49:31;;;;;;;7.28;2.25;;;;;;;;;;6119056;23;20069;-88
2023/12/30 05:52:15;;;;;;;9.10;2.13;;;;;;;;;;6119603;23;20095;-88
2023/12/30 05:54:59;;;;;;;12.77;2.33;;;;;;;;;;6120433;23;20021;-88
2023/12/30 05:57:43;;;;;;;10.88;2.50;;;;;;;;;;6119376;23;20352;-89
2023/12/30 06:00:30;;;;;;;5.45;2.20;;;;;;;;;;6119268;23;20391;-86
2023/12/30 06:03:14;;;;;;;9.70;2.38;;;;;;;;;;6120645;23;20332;-89
2023/12/30 06:05:57;;;;;;;29.75;5.82;;;;;;;;;;6119520;23;20028;-87
2023/12/30 06:08:42;;;;;;;9.98;2.72;;;;;;;;;;6119707;23;20101;-88
2023/12/30 06:11:25;;;;;;;12.80;2.40;;;;;;;;;;6120802;23;20056;-88
2023/12/30 06:14:10;;;;;;;7.45;2.35;;;;;;;;;;6119632;23;20024;-88
2023/12/30 06:16:53;;;;;;;11.45;2.40;;;;;;;;;;6119674;23;20352;-87
2023/12/30 06:19:37;;;;;;;12.90;2.53;;;;;;;;;;6119409;23;20369;-88
2023/12/30 06:22:21;;;;;;;10.07;2.55;;;;;;;;;;6119589;23;20021;-90
2023/12/30 06:25:06;;;;;;;4.25;2.15;;;;;;;;;;6119258;23;20048;-88
2023/12/30 06:27:50;;;;;;;7.30;2.35;;;;;;;;;;6119576;23;20462;-87
2023/12/30 06:30:34;;;;;;;9.43;2.75;;;;;;;;;;6119569;23;20492;-88
2023/12/30 06:33:19;;;;;;;7.30;2.30;;;;;;;;;;6098863;23;20083;-88
2023/12/30 06:36:03;;;;;;;12.05;2.22;;;;;;;;;;6099792;23;20021;-89
2023/12/30 06:38:47;;;;;;;7.07;2.08;;;;;;;;;;6099462;23;20471;-90
2023/12/30 06:41:31;;;;;;;8.85;2.28;;;;;;;;;;6099741;23;20498;-88
2023/12/30 06:44:15;;;;;;;8.02;2.72;;;;;;;;;;6099498;23;20064;-88
2023/12/30 06:46:59;;;;;;;7.32;2.53;;;;;;;;;;6121029;23;20471;-87
2023/12/30 06:49:43;;;;;;;11.15;2.30;;;;;;;;;;6099219;23;20075;-88
2023/12/30 06:52:27;;;;;;;14.90;2.50;;;;;;;;;;6098914;23;20075;-88
2023/12/30 06:55:12;;;;;;;8.02;2.63;;;;;;;;;;6099561;23;20036;-88
2023/12/30 06:57:56;;;;;;;11.20;3.45;;;;;;;;;;6099598;23;20067;-88
2023/12/30 07:00:40;;;;;;;12.25;2.70;;;;;;;;;;6099117;23;20020;-88
2023/12/30 07:03:24;;;;;;;9.80;2.83;;;;;;;;;;6098686;23;20017;-88
2023/12/30 07:06:08;;;;;;;14.30;2.40;;;;;;;;;;6099204;23;20021;-87
2023/12/30 07:08:52;;;;;;;9.65;2.30;;;;;;;;;;6099035;23;20025;-87
2023/12/30 07:11:36;;;;;;;10.60;2.50;;;;;;;;;;6099312;23;20025;-87
2023/12/30 07:14:20;;;;;;;5.80;2.13;;;;;;;;;;6099562;23;20029;-88
2023/12/30 07:17:04;;;;;;;10.90;2.47;;;;;;;;;;6099042;23;20071;-91
2023/12/30 07:19:48;;;;;;;13.73;2.10;;;;;;;;;;6121318;23;20518;-88
2023/12/30 07:22:32;;;;;;;14.45;2.38;;;;;;;;;;6098603;23;20024;-89
2023/12/30 07:25:16;;;;;;;7.05;2.00;;;;;;;;;;6099031;23;20020;-87
2023/12/30 07:28:00;;;;;;;9.05;2.25;;;;;;;;;;6120822;23;20056;-88
2023/12/30 07:30:44;;;;;;;3.78;1.67;;;;;;;;;;6098427;23;20064;-88
2023/12/30 07:33:28;;;;;;;9.82;2.08;;;;;;;;;;6120303;23;20099;-87
2023/12/30 07:36:12;;;;;;;4.53;2.15;;;;;;;;;;6099572;23;20072;-88
2023/12/30 07:38:56;;;;;;;7.55;2.28;;;;;;;;;;6100875;23;20040;-89
2023/12/30 07:41:40;;;;;;;9.18;3.03;;;;;;;;;;6099113;23;20041;-86
2023/12/30 07:44:24;;;;;;;5.03;1.55;;;;;;;;;;6099035;23;20090;-87
2023/12/30 07:47:08;;;;;;;8.15;1.92;;;;;;;;;;6120751;23;20032;-88
2023/12/30 07:49:52;;;;;;;5.05;2.75;;;;;;;;;;6098253;23;20349;-87
2023/12/30 07:52:36;;;;;;;8.52;1.88;;;;;;;;;;6099115;23;20470;-86
2023/12/30 07:55:20;;;;;;;7.45;1.80;;;;;;;;;;6120571;23;20021;-87
2023/12/30 07:58:04;;;;;;;2.95;1.75;;;;;;;;;;6099766;23;20337;-88
2023/12/30 08:00:47;;;;;;;4.65;2.10;;;;;;;;;;6099497;23;20025;-87
2023/12/30 08:03:31;;;;;;;8.02;2.05;;;;;;;;;;6119925;23;20017;-87
2023/12/30 08:06:15;;;;;;;5.57;2.10;;;;;;;;;;6099039;23;20349;-87
2023/12/30 08:08:59;;;;;;;9.35;1.95;;;;;;;;;;6099046;23;20017;-89
2023/12/30 08:11:47;;;;;;;8.50;2.58;;;;;;;;;;6100530;23;20067;-88
2023/12/30 08:14:31;;;;;;;5.07;1.90;;;;;;;;;;6099132;23;20337;-89
2023/12/30 08:17:14;;;;;;;6.00;2.25;;;;;;;;;;6101373;23;20391;-88
2023/12/30 08:19:58;;;;;;;8.82;1.92;;;;;;;;;;6123808;23;20032;-87
2023/12/30 08:22:42;;;;;;;10.77;2.75;;;;;;;;;;6099122;23;20052;-87
2023/12/30 08:25:26;;;;;;;9.50;2.75;;;;;;;;;;6119483;23;20017;-87
2023/12/30 08:28:12;;;;;;;10.95;2.58;;;;;;;;;;6098091;23;20029;-88
2023/12/30 08:30:59;;;;;;;6.07;2.70;;;;;;;;;;6097354;23;20099;-85
2023/12/30 08:33:43;;;;;;;10.63;2.85;;;;;;;;;;6124157;23;20071;-87
2023/12/30 08:36:28;;;;;;;7.68;3.22;;;;;;;;;;6127225;23;20021;-87
2023/12/30 08:39:12;;;;;;;10.48;3.90;;;;;;;;;;6127411;23;20056;-88
2023/12/30 08:41:56;;;;;;;11.77;4.25;;;;;;;;;;6150018;23;20508;-87
2023/12/30 08:44:43;;;;;;;15.45;3.42;;;;;;;;;;6127379;23;20024;-89
2023/12/30 08:47:32;;;;;;;16.65;3.35;;;;;;;;;;6128321;23;20024;-88
2023/12/30 08:50:15;;;;;;;5.82;2.97;;;;;;;;;;6129772;23;20604;-89
2023/12/30 08:52:59;;;;;;;8.85;3.42;;;;;;;;;;6130186;23;20027;-89
2023/12/30 08:55:43;;;;;;;13.93;3.67;;;;;;;;;;6152955;23;20079;-89
2023/12/30 08:58:27;;;;;;;9.07;3.63;;;;;;;;;;6130436;23;20021;-88
2023/12/30 09:01:11;;;;;;;18.35;4.65;;;;;;;;;;6130449;23;20068;-89
2023/12/30 09:03:55;;;;;;;17.00;3.88;;;;;;;;;;6132399;23;20063;-89
2023/12/30 09:06:39;;;;;;;16.08;4.00;;;;;;;;;;6153603;23;20027;-89
2023/12/30 09:09:23;;;;;;;19.70;4.05;;;;;;;;;;6130690;23;20021;-89
2023/12/30 09:12:07;;;;;;;15.75;4.30;;;;;;;;;;6130559;23;20718;-88
2023/12/30 09:14:52;;;;;;;10.45;3.88;;;;;;;;;;6129566;23;20103;-88
2023/12/30 09:17:36;;;;;;;16.00;5.10;;;;;;;;;;6131333;23;20024;-89
2023/12/30 09:20:20;;;;;;;22.98;4.65;;;;;;;;;;6131126;23;20020;-89
2023/12/30 09:23:04;;;;;;;16.88;5.18;;;;;;;;;;6130474;23;20064;-88
2023/12/30 09:25:48;;;;;;;24.92;5.53;;;;;;;;;;6130992;23;20020;-89
2023/12/30 09:28:33;;;;;;;25.08;5.70;;;;;;;;;;6152536;23;20020;-90
2023/12/30 09:31:18;;;;;;;18.27;5.90;;;;;;;;;;6130643;23;20025;-88
2023/12/30 09:34:02;;;;;;;13.57;6.18;;;;;;;;;;6129989;23;20024;-89
2023/12/30 09:36:46;;;;;;;20.65;6.78;;;;;;;;;;6130080;23;20051;-88
2023/12/30 09:39:30;;;;;;;24.33;7.40;;;;;;;;;;6152119;23;20471;-88
2023/12/30 09:42:14;;;;;;;23.85;8.38;;;;;;;;;;6152203;23;20020;-89
2023/12/30 09:44:58;;;;;;;19.10;8.23;;;;;;;;;;6130175;23;20020;-89
2023/12/30 09:47:44;;;;;;;36.35;9.30;;;;;;;;;;6153009;23;20024;-89
2023/12/30 09:50:29;;;;;;;30.20;9.65;;;;;;;;;;6129682;23;20060;-88
2023/12/30 09:53:12;;;;;;;26.40;11.88;;;;;;;;;;6130169;23;20071;-90
2023/12/30 09:55:58;;;;;;;60.40;28.83;;;;;;;;;;6129520;23;20036;-88
2023/12/30 09:58:43;;;;;;;51.53;26.58;;;;;;;;;;6130152;23;20340;-89
2023/12/30 10:01:28;;;;;;;52.78;24.58;;;;;;;;;;6130290;23;20426;-89
2023/12/30 10:04:12;;;;;;;45.00;20.70;;;;;;;;;;6130298;23;20069;-88
2023/12/30 10:06:56;;;;;;;159.93;26.38;;;;;;;;;;6129722;23;20024;-89
2023/12/30 10:09:41;;;;;;;64.53;23.13;;;;;;;;;;6129389;23;20076;-89
2023/12/30 10:12:25;;;;;;;51.45;23.63;;;;;;;;;;6128865;23;20024;-89
2023/12/30 10:15:08;;;;;;;47.90;20.83;;;;;;;;;;6128720;23;20044;-88
2023/12/30 10:17:53;;;;;;;43.00;21.10;;;;;;;;;;6129791;23;20060;-88
2023/12/30 10:20:37;;;;;;;41.20;18.88;;;;;;;;;;6151223;23;20097;-89
2023/12/30 10:23:23;;;;;;;64.15;23.95;;;;;;;;;;6151666;23;20021;-88
2023/12/30 10:26:08;;;;;;;47.28;20.35;;;;;;;;;;6129584;23;20020;-89
2023/12/30 10:28:51;;;;;;;51.60;24.70;;;;;;;;;;6129914;23;20510;-89
2023/12/30 10:31:35;;;;;;;70.18;25.08;;;;;;;;;;6129083;23;20467;-88
2023/12/30 10:34:20;;;;;;;62.90;21.33;;;;;;;;;;6129088;23;20064;-88
2023/12/30 10:37:04;;;;;;;57.55;19.83;;;;;;;;;;6129881;23;20079;-90
2023/12/30 10:39:48;;;;;;;52.83;19.88;;;;;;;;;;6129199;23;20074;-88
2023/12/30 10:42:32;;;;;;;46.55;19.08;;;;;;;;;;6128595;23;20048;-89
2023/12/30 10:45:16;;;;;;;40.40;19.95;;;;;;;;;;6129913;23;20071;-89
2023/12/30 10:48:01;;;;;;;39.78;19.15;;;;;;;;;;6130724;23;20067;-88
2023/12/30 10:50:45;;;;;;;65.50;20.98;;;;;;;;;;6129400;23;20020;-89
2023/12/30 10:53:30;;;;;;;46.10;21.77;;;;;;;;;;6151025;23;20520;-90
2023/12/30 10:56:16;;;;;;;50.83;23.15;;;;;;;;;;6129804;23;20017;-88
2023/12/30 10:59:03;;;;;;;60.58;25.95;;;;;;;;;;6151347;23;20403;-88
2023/12/30 11:01:47;;;;;;;93.25;27.63;;;;;;;;;;6127960;23;20020;-88
2023/12/30 11:04:31;;;;;;;43.88;22.02;;;;;;;;;;6127674;23;20020;-88
2023/12/30 11:07:16;;;;;;;63.55;23.30;;;;;;;;;;6127747;23;20024;-88
2023/12/30 11:10:01;;;;;;;142.80;27.10;;;;;;;;;;6127840;23;20102;-90
2023/12/30 11:12:45;;;;;;;224.05;32.58;;;;;;;;;;6127599;23;20729;-88
2023/12/30 11:15:38;;;;;;;42.72;20.00;;;;;;;;;;6149541;23;20144;-87
2023/12/30 11:18:40;;;;;;;173.43;27.60;;;;;;;;;;6127223;23;20075;-91
2023/12/30 11:21:42;;;;;;;177.18;31.50;;;;;;;;;;6149783;23;20020;-88
2023/12/30 11:24:27;;;;;;;58.45;21.85;;;;;;;;;;6127370;23;20067;-88
2023/12/30 11:27:11;;;;;;;49.60;20.73;;;;;;;;;;6150259;23;20021;-87
2023/12/30 11:29:56;;;;;;;90.57;23.48;;;;;;;;;;6127780;23;20025;-89
2023/12/30 11:32:41;;;;;;;239.55;31.23;;;;;;;;;;6129099;22;20024;-88
2023/12/30 11:35:25;;;;;;;48.30;20.98;;;;;;;;;;6128461;23;20020;-88
2023/12/30 11:38:11;;;;;;;79.20;25.23;;;;;;;;;;6128065;23;20060;-89
2023/12/30 11:40:55;;;;;;;59.35;21.92;;;;;;;;;;6128504;23;20037;-88
2023/12/30 11:43:39;;;;;;;549.35;53.13;;;;;;;;;;6150118;23;20025;-90
2023/12/30 11:46:23;;;;;;;50.45;24.73;;;;;;;;;;6127682;23;20028;-89
2023/12/30 11:49:09;;;;;;;53.40;21.52;;;;;;;;;;6149696;23;20373;-86
2023/12/30 11:52:04;;;;;;;50.67;21.92;;;;;;;;;;6127711;23;20025;-87
2023/12/30 11:54:51;;;;;;;196.57;27.75;;;;;;;;;;6149540;23;20025;-88
2023/12/30 11:57:36;;;;;;;146.60;25.80;;;;;;;;;;6128380;23;20048;-89
2023/12/30 12:00:21;;;;;;;260.10;30.02;;;;;;;;;;6127147;23;20020;-89
2023/12/30 12:03:05;;;;;;;152.73;25.40;;;;;;;;;;6131006;23;20112;-89
2023/12/30 12:05:49;;;;;;;226.27;29.35;;;;;;;;;;6130340;23;20019;-90
2023/12/30 12:08:58;;;;;;;256.33;32.38;;;;;;;;;;6132187;23;20100;-90
2023/12/30 12:11:43;;;;;;;79.78;23.20;;;;;;;;;;6127807;23;20071;-89
2023/12/30 12:14:26;;;;;;;51.05;19.63;;;;;;;;;;6127345;23;20451;-88
2023/12/30 12:17:10;;;;;;;63.25;20.95;;;;;;;;;;6128022;23;20320;-88
2023/12/30 12:19:58;;;;;;;56.33;18.80;;;;;;;;;;6129292;23;20025;-86
2023/12/30 12:22:42;;;;;;;57.10;19.70;;;;;;;;;;6129095;23;20020;-89
2023/12/30 12:25:26;;;;;;;48.92;19.67;;;;;;;;;;6127366;23;20056;-91
2023/12/30 12:28:13;;;;;;;43.67;18.10;;;;;;;;;;6128202;23;20059;-87
2023/12/30 12:31:01;;;;;;;52.97;17.20;;;;;;;;;;6127796;23;20107;-90
2023/12/30 12:33:45;;;;;;;52.13;17.45;;;;;;;;;;6132288;23;20080;-85
2023/12/30 12:36:29;;;;;;;41.38;18.17;;;;;;;;;;6128734;23;20462;-89
2023/12/30 12:39:13;;;;;;;44.10;17.80;;;;;;;;;;6129999;23;20016;-89
2023/12/30 12:41:57;;;;;;;44.20;19.27;;;;;;;;;;6149510;23;20036;-88
2023/12/30 12:44:41;;;;;;;36.65;16.98;;;;;;;;;;6128043;23;20339;-86
2023/12/30 12:47:34;;;;;;;41.30;17.15;;;;;;;;;;6128077;22;20069;-88
2023/12/30 12:50:19;;;;;;;35.10;15.52;;;;;;;;;;6150519;23;20356;-86
2023/12/30 12:53:03;;;;;;;45.22;16.35;;;;;;;;;;6150770;23;20125;-90
2023/12/30 12:55:47;;;;;;;38.38;16.17;;;;;;;;;;6128782;23;20056;-89
2023/12/30 12:58:34;;;;;;;40.65;15.88;;;;;;;;;;6137411;23;20021;-92
2023/12/30 13:01:21;;;;;;;47.50;18.52;;;;;;;;;;6155891;23;20071;-89
2023/12/30 13:04:05;;;;;;;61.30;23.48;;;;;;;;;;6130427;22;20017;-89
2023/12/30 13:06:49;;;;;;;35.90;17.23;;;;;;;;;;6129475;23;20089;-90
2023/12/30 13:09:44;;;;;;;74.57;19.88;;;;;;;;;;6131112;23;20402;-89
2023/12/30 13:12:31;;;;;;;37.38;17.25;;;;;;;;;;6132215;23;20029;-89
2023/12/30 13:15:40;;;;;;;78.25;21.10;;;;;;;;;;6132162;23;20053;-91
2023/12/30 13:18:24;;;;;;;392.10;51.70;;;;;;;;;;6150895;23;20501;-90
2023/12/30 13:21:09;;;;;;;34.63;14.10;;;;;;;;;;6128613;23;20056;-88
2023/12/30 13:23:53;;;;;;;37.15;14.32;;;;;;;;;;6129992;23;20500;-88
2023/12/30 13:26:38;;;;;;;22.50;10.50;;;;;;;;;;6129302;23;20097;-87
2023/12/30 13:29:21;;;;;;;36.50;9.23;;;;;;;;;;6129656;23;20017;-88
2023/12/30 13:32:16;;;;;;;;;;;;;;;;;;;;;
2023/12/30 13:35:13;;;;;;;37.72;9.20;;;;;;;;;;6151980;23;20098;-87
2023/12/30 13:37:59;;;;;;;18.88;8.18;;;;;;;;;;6093177;23;20056;-91
2023/12/30 13:41:00;;;;;;;27.05;8.43;;;;;;;;;;6094213;23;20021;-88
2023/12/30 13:54:20;;;;;;;31.92;11.00;;;;;;;;;;6090722;23;20104;-90
2023/12/30 13:58:02;;;;;;;;;;;;;;;;;;;;;
2023/12/30 14:01:12;;;;;;;31.98;8.45;;;;;;;;;;5985100;23;20371;-91
2023/12/30 14:04:41;;;;;;;46.70;13.70;;;;;;;;;;6091835;23;20349;-89
2023/12/30 14:11:50;;;;;;;24.80;8.77;;;;;;;;;;6005931;23;20084;-90
2023/12/30 14:18:00;;;;;;;37.65;10.10;;;;;;;;;;6153327;23;20351;-91
2023/12/30 14:21:08;;;;;;;33.28;10.13;;;;;;;;;;6131297;22;20490;-88
2023/12/30 14:24:18;;;;;;;;;;;;;;;;;;;;;
2023/12/30 14:27:04;;;;;;;29.52;8.40;;;;;;;;;;6153874;23;20538;-89
2023/12/30 14:29:57;;;;;;;25.95;6.90;;;;;;;;;;6131150;23;20028;-90
2023/12/30 14:54:38;;;;;;;36.72;7.55;;;;;;;;;;6064765;23;20408;-91
2023/12/30 14:57:27;;;;;;;33.60;7.93;;;;;;;;;;6068671;23;20024;-91
2023/12/30 15:00:44;;;;;;;26.27;7.60;;;;;;;;;;6123185;23;20021;-89
2023/12/30 15:04:11;;;;;;;38.35;8.40;;;;;;;;;;6092440;23;20068;-90
2023/12/30 15:07:18;;;;;;;31.40;7.63;;;;;;;;;;6105678;23;20036;-89
2023/12/30 15:10:14;;;;;;;29.23;8.27;;;;;;;;;;6104916;23;20385;-89
2023/12/30 15:13:08;;;;;;;48.72;8.27;;;;;;;;;;6105525;23;20041;-91
2023/12/30 15:16:13;;;;;;;35.72;10.10;;;;;;;;;;6125696;23;20345;-91
2023/12/30 15:19:36;;;;;;;61.25;9.90;;;;;;;;;;6073166;23;20026;-89
2023/12/30 15:22:40;;;;;;;34.95;8.30;;;;;;;;;;6073278;23;20018;-90
2023/12/30 15:25:27;;;;;;;;;;;;;;;;;;6072580;23;20475;-92
2023/12/30 15:28:34;;;;;;;59.20;20.90;;;;;;;;;;6104495;23;19916;-90
2023/12/30 15:31:31;;;;;;;45.28;10.20;;;;;;;;;;6127599;23;20020;-90
2023/12/30 15:37:57;;;;;;;220.88;25.45;;;;;;;;;;6153897;23;20345;-89
2023/12/30 15:40:55;;;;;;;42.65;10.82;;;;;;;;;;6131782;23;20156;-90
2023/12/30 16:01:53;;;;;;;36.10;7.88;;;;;;;;;;6154030;23;20084;-90
2023/12/30 16:04:40;;;;;;;35.90;8.68;;;;;;;;;;6131359;23;20459;-90
2023/12/30 16:07:37;;;;;;;42.60;8.82;;;;;;;;;;6131218;23;20024;-92
2023/12/30 16:24:41;;;;;;;47.58;10.88;;;;;;;;;;6153495;23;20340;-90
2023/12/30 16:27:31;;;;;;;42.90;10.77;;;;;;;;;;6131640;22;20070;-90
2023/12/30 16:30:56;;;;;;;;;;;;;;;;;;;;;
2023/12/30 16:45:06;;;;;;;43.70;10.02;;;;;;;;;;6185535;23;20020;-89
2023/12/30 16:48:34;;;;;;;;;;;;;;;;;;;;;
2023/12/30 16:51:37;;;;;;;;;;;;;;;;;;;;;
2023/12/30 16:54:22;;;;;;;32.38;7.05;;;;;;;;;;6180370;23;20060;-88
2023/12/30 16:57:06;;;;;;;42.65;9.75;;;;;;;;;;6127465;23;20200;-89
2023/12/30 16:59:52;;;;;;;36.33;8.07;;;;;;;;;;6128302;23;20192;-90
2023/12/30 17:02:36;;;;;;;28.38;7.10;;;;;;;;;;6128221;23;20348;-89
2023/12/30 17:05:20;;;;;;;38.72;7.47;;;;;;;;;;6150022;23;20016;-90
2023/12/30 17:08:05;;;;;;;34.38;9.05;;;;;;;;;;6128988;22;20074;-89
2023/12/30 17:10:49;;;;;;;38.47;7.97;;;;;;;;;;6127942;23;20052;-89
2023/12/30 17:13:47;;;;;;;35.22;7.32;;;;;;;;;;6132458;23;20025;-90
2023/12/30 17:16:37;;;;;;;24.05;8.20;;;;;;;;;;6131908;23;20024;-90
2023/12/30 17:19:24;;;;;;;58.72;13.90;;;;;;;;;;6132477;23;20336;-90
2023/12/30 17:22:09;;;;;;;33.67;7.07;;;;;;;;;;6151194;23;20023;-89
2023/12/30 17:24:58;;;;;;;43.65;12.63;;;;;;;;;;6128970;23;20043;-90
2023/12/30 17:27:43;;;;;;;27.58;7.80;;;;;;;;;;6130866;23;20032;-90
2023/12/30 17:30:28;;;;;;;37.05;6.95;;;;;;;;;;6130956;22;20020;-90
2023/12/30 17:33:13;;;;;;;27.05;7.90;;;;;;;;;;6121187;23;20087;-88
2023/12/30 17:35:57;;;;;;;25.27;6.32;;;;;;;;;;6119238;23;20024;-88
2023/12/30 17:38:41;;;;;;;28.58;7.07;;;;;;;;;;6119724;23;20044;-88
2023/12/30 17:41:25;;;;;;;28.90;7.78;;;;;;;;;;6119799;23;20479;-90
2023/12/30 17:44:09;;;;;;;34.63;7.35;;;;;;;;;;6118788;23;20096;-87
2023/12/30 17:46:54;;;;;;;27.50;7.07;;;;;;;;;;6119208;23;20052;-87
2023/12/30 17:49:38;;;;;;;41.33;8.57;;;;;;;;;;6120770;23;20091;-89
2023/12/30 17:52:22;;;;;;;26.67;9.90;;;;;;;;;;6123797;23;20068;-88
2023/12/30 17:55:09;;;;;;;37.65;8.85;;;;;;;;;;6119736;23;20021;-89
2023/12/30 17:57:53;;;;;;;46.15;9.85;;;;;;;;;;6122851;23;20024;-91